sensor_id;sensor_type;location;lat;lon;timestamp;P1;durP1;ratioP1;P2;durP2;ratioP2
10059;SDS011;5069;49.306;8.636;2023-06-22T00:00:13;6.65;;;4.85;;
10059;SDS011;5069;49.306;8.636;2023-06-22T00:03:14;6.35;;;4.50;;
10059;SDS011;5069;49.306;8.636;2023-06-22T00:06:16;5.53;;;4.50;;
10059;SDS011;5069;49.306;8.636;2023-06-22T00:09:18;5.22;;;4.22;;
10059;SDS011;5069;49.306;8.636;2023-06-22T00:12:19;5.40;;;4.35;;
10059;SDS011;5069;49.306;8.636;2023-06-22T00:15:21;5.10;;;4.60;;
10059;SDS011;5069;49.306;8.636;2023-06-22T00:18:22;5.13;;;4.63;;
10059;SDS011;5069;49.306;8.636;2023-06-22T00:21:29;7.13;;;4.55;;
10059;SDS011;5069;49.306;8.636;2023-06-22T00:24:30;5.20;;;4.65;;
10059;SDS011;5069;49.306;8.636;2023-06-22T00:27:32;4.68;;;4.28;;
10059;SDS011;5069;49.306;8.636;2023-06-22T00:30:34;6.18;;;4.68;;
10059;SDS011;5069;49.306;8.636;2023-06-22T00:33:36;5.43;;;4.57;;
10059;SDS011;5069;49.306;8.636;2023-06-22T00:36:39;4.90;;;4.32;;
10059;SDS011;5069;49.306;8.636;2023-06-22T00:39:45;5.13;;;4.38;;
10059;SDS011;5069;49.306;8.636;2023-06-22T00:42:46;4.78;;;4.30;;
10059;SDS011;5069;49.306;8.636;2023-06-22T00:45:48;4.80;;;4.30;;
10059;SDS011;5069;49.306;8.636;2023-06-22T00:48:51;6.72;;;4.60;;
10059;SDS011;5069;49.306;8.636;2023-06-22T00:51:54;5.57;;;4.45;;
10059;SDS011;5069;49.306;8.636;2023-06-22T00:54:58;5.10;;;4.60;;
10059;SDS011;5069;49.306;8.636;2023-06-22T00:58:03;6.97;;;5.17;;
10059;SDS011;5069;49.306;8.636;2023-06-22T01:01:07;10.40;;;5.57;;
10059;SDS011;5069;49.306;8.636;2023-06-22T01:04:09;8.83;;;5.70;;
10059;SDS011;5069;49.306;8.636;2023-06-22T01:10:57;6.33;;;5.43;;
10059;SDS011;5069;49.306;8.636;2023-06-22T01:14:08;6.40;;;5.30;;
10059;SDS011;5069;49.306;8.636;2023-06-22T01:17:16;9.73;;;5.60;;
10059;SDS011;5069;49.306;8.636;2023-06-22T01:20:20;9.73;;;5.90;;
10059;SDS011;5069;49.306;8.636;2023-06-22T01:23:26;6.27;;;5.53;;
10059;SDS011;5069;49.306;8.636;2023-06-22T01:27:31;8.83;;;6.27;;
10059;SDS011;5069;49.306;8.636;2023-06-22T01:30:28;7.60;;;6.07;;
10059;SDS011;5069;49.306;8.636;2023-06-22T01:33:33;6.43;;;5.47;;
10059;SDS011;5069;49.306;8.636;2023-06-22T01:36:36;7.93;;;5.77;;
10059;SDS011;5069;49.306;8.636;2023-06-22T01:39:40;8.07;;;6.13;;
10059;SDS011;5069;49.306;8.636;2023-06-22T01:42:42;9.57;;;6.47;;
10059;SDS011;5069;49.306;8.636;2023-06-22T01:45:44;9.50;;;6.17;;
10059;SDS011;5069;49.306;8.636;2023-06-22T01:48:46;9.77;;;6.47;;
10059;SDS011;5069;49.306;8.636;2023-06-22T01:51:48;7.07;;;6.10;;
10059;SDS011;5069;49.306;8.636;2023-06-22T01:54:50;7.17;;;6.47;;
10059;SDS011;5069;49.306;8.636;2023-06-22T01:57:53;8.87;;;6.20;;
10059;SDS011;5069;49.306;8.636;2023-06-22T02:01:09;8.20;;;6.13;;
10059;SDS011;5069;49.306;8.636;2023-06-22T02:04:13;8.83;;;6.53;;
10059;SDS011;5069;49.306;8.636;2023-06-22T02:07:30;7.10;;;6.40;;
10059;SDS011;5069;49.306;8.636;2023-06-22T02:10:38;8.23;;;6.43;;
10059;SDS011;5069;49.306;8.636;2023-06-22T02:13:44;7.73;;;6.50;;
10059;SDS011;5069;49.306;8.636;2023-06-22T02:16:47;7.27;;;6.40;;
10059;SDS011;5069;49.306;8.636;2023-06-22T02:19:49;7.83;;;6.70;;
10059;SDS011;5069;49.306;8.636;2023-06-22T02:22:50;8.33;;;6.47;;
10059;SDS011;5069;49.306;8.636;2023-06-22T02:25:52;9.23;;;6.60;;
10059;SDS011;5069;49.306;8.636;2023-06-22T02:28:53;10.93;;;7.37;;
10059;SDS011;5069;49.306;8.636;2023-06-22T02:31:55;6.87;;;6.13;;
10059;SDS011;5069;49.306;8.636;2023-06-22T02:34:56;8.57;;;6.70;;
10059;SDS011;5069;49.306;8.636;2023-06-22T02:37:59;7.70;;;6.63;;
10059;SDS011;5069;49.306;8.636;2023-06-22T02:41:02;9.47;;;7.07;;
10059;SDS011;5069;49.306;8.636;2023-06-22T02:44:04;8.47;;;7.13;;
10059;SDS011;5069;49.306;8.636;2023-06-22T02:47:05;11.33;;;7.63;;
10059;SDS011;5069;49.306;8.636;2023-06-22T02:50:07;8.30;;;7.40;;
10059;SDS011;5069;49.306;8.636;2023-06-22T02:53:09;7.87;;;7.07;;
10059;SDS011;5069;49.306;8.636;2023-06-22T02:56:18;11.20;;;7.43;;
10059;SDS011;5069;49.306;8.636;2023-06-22T02:59:28;7.10;;;6.40;;
10059;SDS011;5069;49.306;8.636;2023-06-22T03:02:37;7.73;;;6.93;;
10059;SDS011;5069;49.306;8.636;2023-06-22T03:05:39;8.90;;;6.97;;
10059;SDS011;5069;49.306;8.636;2023-06-22T03:08:41;7.60;;;6.90;;
10059;SDS011;5069;49.306;8.636;2023-06-22T03:11:44;7.40;;;6.53;;
10059;SDS011;5069;49.306;8.636;2023-06-22T03:14:46;7.60;;;6.27;;
10059;SDS011;5069;49.306;8.636;2023-06-22T03:17:48;7.60;;;6.80;;
10059;SDS011;5069;49.306;8.636;2023-06-22T03:20:49;8.50;;;6.27;;
10059;SDS011;5069;49.306;8.636;2023-06-22T03:23:51;7.03;;;6.33;;
10059;SDS011;5069;49.306;8.636;2023-06-22T03:26:52;8.17;;;6.30;;
10059;SDS011;5069;49.306;8.636;2023-06-22T03:29:54;7.97;;;6.20;;
10059;SDS011;5069;49.306;8.636;2023-06-22T03:32:56;6.80;;;6.10;;
10059;SDS011;5069;49.306;8.636;2023-06-22T03:36:00;7.33;;;6.00;;
10059;SDS011;5069;49.306;8.636;2023-06-22T03:39:02;6.10;;;5.50;;
10059;SDS011;5069;49.306;8.636;2023-06-22T03:42:03;7.97;;;5.80;;
10059;SDS011;5069;49.306;8.636;2023-06-22T03:45:05;6.90;;;5.80;;
10059;SDS011;5069;49.306;8.636;2023-06-22T03:48:07;10.23;;;6.10;;
10059;SDS011;5069;49.306;8.636;2023-06-22T03:51:09;10.20;;;7.07;;
10059;SDS011;5069;49.306;8.636;2023-06-22T03:54:11;7.00;;;6.30;;
10059;SDS011;5069;49.306;8.636;2023-06-22T03:57:12;8.53;;;6.63;;
10059;SDS011;5069;49.306;8.636;2023-06-22T04:00:13;7.30;;;6.60;;
10059;SDS011;5069;49.306;8.636;2023-06-22T04:03:17;8.53;;;6.33;;
10059;SDS011;5069;49.306;8.636;2023-06-22T04:06:22;7.77;;;6.97;;
10059;SDS011;5069;49.306;8.636;2023-06-22T04:09:24;8.00;;;6.43;;
10059;SDS011;5069;49.306;8.636;2023-06-22T04:12:25;8.30;;;5.60;;
10059;SDS011;5069;49.306;8.636;2023-06-22T04:15:27;9.63;;;6.57;;
10059;SDS011;5069;49.306;8.636;2023-06-22T04:18:28;6.80;;;6.10;;
10059;SDS011;5069;49.306;8.636;2023-06-22T04:21:30;10.07;;;7.03;;
10059;SDS011;5069;49.306;8.636;2023-06-22T04:24:31;10.77;;;6.67;;
10059;SDS011;5069;49.306;8.636;2023-06-22T04:27:33;7.40;;;6.60;;
10059;SDS011;5069;49.306;8.636;2023-06-22T04:30:38;8.20;;;6.57;;
10059;SDS011;5069;49.306;8.636;2023-06-22T04:33:47;7.70;;;6.57;;
10059;SDS011;5069;49.306;8.636;2023-06-22T04:36:48;11.13;;;6.73;;
10059;SDS011;5069;49.306;8.636;2023-06-22T04:39:50;6.73;;;6.13;;
10059;SDS011;5069;49.306;8.636;2023-06-22T04:42:52;8.33;;;6.60;;
10059;SDS011;5069;49.306;8.636;2023-06-22T04:45:54;6.87;;;5.87;;
10059;SDS011;5069;49.306;8.636;2023-06-22T04:48:56;6.70;;;6.10;;
10059;SDS011;5069;49.306;8.636;2023-06-22T04:51:58;7.43;;;5.50;;
10059;SDS011;5069;49.306;8.636;2023-06-22T04:55:00;6.30;;;5.70;;
10059;SDS011;5069;49.306;8.636;2023-06-22T04:58:01;6.87;;;6.13;;
10059;SDS011;5069;49.306;8.636;2023-06-22T05:01:06;6.53;;;5.93;;
10059;SDS011;5069;49.306;8.636;2023-06-22T05:04:09;6.87;;;6.17;;
10059;SDS011;5069;49.306;8.636;2023-06-22T05:07:11;8.80;;;6.10;;
10059;SDS011;5069;49.306;8.636;2023-06-22T05:10:14;6.50;;;5.77;;
10059;SDS011;5069;49.306;8.636;2023-06-22T05:13:15;6.53;;;5.93;;
10059;SDS011;5069;49.306;8.636;2023-06-22T05:16:17;7.77;;;5.83;;
10059;SDS011;5069;49.306;8.636;2023-06-22T05:19:18;7.87;;;6.17;;
10059;SDS011;5069;49.306;8.636;2023-06-22T05:22:20;7.13;;;5.73;;
10059;SDS011;5069;49.306;8.636;2023-06-22T05:25:21;6.43;;;5.83;;
10059;SDS011;5069;49.306;8.636;2023-06-22T05:28:23;8.30;;;6.73;;
10059;SDS011;5069;49.306;8.636;2023-06-22T05:31:24;7.47;;;6.00;;
10059;SDS011;5069;49.306;8.636;2023-06-22T05:34:26;8.23;;;5.80;;
10059;SDS011;5069;49.306;8.636;2023-06-22T05:37:28;7.77;;;6.40;;
10059;SDS011;5069;49.306;8.636;2023-06-22T05:40:30;6.87;;;5.97;;
10059;SDS011;5069;49.306;8.636;2023-06-22T05:43:31;6.87;;;6.17;;
10059;SDS011;5069;49.306;8.636;2023-06-22T05:46:33;8.03;;;6.07;;
10059;SDS011;5069;49.306;8.636;2023-06-22T05:49:35;7.37;;;6.67;;
10059;SDS011;5069;49.306;8.636;2023-06-22T05:52:36;9.80;;;6.30;;
10059;SDS011;5069;49.306;8.636;2023-06-22T05:55:38;10.53;;;6.60;;
10059;SDS011;5069;49.306;8.636;2023-06-22T05:58:39;6.75;;;5.93;;
10059;SDS011;5069;49.306;8.636;2023-06-22T06:01:41;9.87;;;6.90;;
10059;SDS011;5069;49.306;8.636;2023-06-22T06:04:42;10.63;;;6.00;;
10059;SDS011;5069;49.306;8.636;2023-06-22T06:07:45;8.33;;;6.80;;
10059;SDS011;5069;49.306;8.636;2023-06-22T06:10:47;7.97;;;6.43;;
10059;SDS011;5069;49.306;8.636;2023-06-22T06:13:48;8.67;;;7.20;;
10059;SDS011;5069;49.306;8.636;2023-06-22T06:16:50;9.20;;;6.53;;
10059;SDS011;5069;49.306;8.636;2023-06-22T06:19:52;7.87;;;6.23;;
10059;SDS011;5069;49.306;8.636;2023-06-22T06:22:54;11.30;;;6.77;;
10059;SDS011;5069;49.306;8.636;2023-06-22T06:25:55;10.95;;;6.53;;
10059;SDS011;5069;49.306;8.636;2023-06-22T06:28:56;8.98;;;6.82;;
10059;SDS011;5069;49.306;8.636;2023-06-22T06:31:58;9.35;;;6.70;;
10059;SDS011;5069;49.306;8.636;2023-06-22T06:35:00;10.75;;;6.93;;
10059;SDS011;5069;49.306;8.636;2023-06-22T06:38:01;7.22;;;6.53;;
10059;SDS011;5069;49.306;8.636;2023-06-22T06:41:03;8.10;;;7.10;;
10059;SDS011;5069;49.306;8.636;2023-06-22T06:44:05;10.88;;;7.28;;
10059;SDS011;5069;49.306;8.636;2023-06-22T06:47:06;7.78;;;6.95;;
10059;SDS011;5069;49.306;8.636;2023-06-22T06:50:08;12.57;;;7.57;;
10059;SDS011;5069;49.306;8.636;2023-06-22T06:53:10;8.05;;;6.90;;
10059;SDS011;5069;49.306;8.636;2023-06-22T06:56:12;8.50;;;6.53;;
10059;SDS011;5069;49.306;8.636;2023-06-22T06:59:14;9.02;;;6.60;;
10059;SDS011;5069;49.306;8.636;2023-06-22T07:02:16;8.00;;;7.18;;
10059;SDS011;5069;49.306;8.636;2023-06-22T07:05:18;8.68;;;6.55;;
10059;SDS011;5069;49.306;8.636;2023-06-22T07:08:19;9.98;;;6.68;;
10059;SDS011;5069;49.306;8.636;2023-06-22T07:11:21;7.35;;;6.65;;
10059;SDS011;5069;49.306;8.636;2023-06-22T07:14:22;9.27;;;7.40;;
10059;SDS011;5069;49.306;8.636;2023-06-22T07:17:24;8.63;;;6.55;;
10059;SDS011;5069;49.306;8.636;2023-06-22T07:20:26;7.53;;;6.80;;
10059;SDS011;5069;49.306;8.636;2023-06-22T07:23:28;7.75;;;6.78;;
10059;SDS011;5069;49.306;8.636;2023-06-22T07:26:29;8.20;;;6.90;;
10059;SDS011;5069;49.306;8.636;2023-06-22T07:29:31;8.98;;;7.07;;
10059;SDS011;5069;49.306;8.636;2023-06-22T07:32:33;8.77;;;6.57;;
10059;SDS011;5069;49.306;8.636;2023-06-22T07:35:35;9.43;;;6.82;;
10059;SDS011;5069;49.306;8.636;2023-06-22T07:38:36;9.00;;;6.75;;
10059;SDS011;5069;49.306;8.636;2023-06-22T07:41:38;8.98;;;6.40;;
10059;SDS011;5069;49.306;8.636;2023-06-22T07:44:42;7.60;;;6.90;;
10059;SDS011;5069;49.306;8.636;2023-06-22T07:47:43;7.72;;;6.40;;
10059;SDS011;5069;49.306;8.636;2023-06-22T07:50:45;10.45;;;7.03;;
10059;SDS011;5069;49.306;8.636;2023-06-22T07:53:46;8.70;;;6.68;;
10059;SDS011;5069;49.306;8.636;2023-06-22T07:56:47;7.75;;;6.30;;
10059;SDS011;5069;49.306;8.636;2023-06-22T07:59:49;9.10;;;6.38;;
10059;SDS011;5069;49.306;8.636;2023-06-22T08:02:51;8.25;;;6.95;;
10059;SDS011;5069;49.306;8.636;2023-06-22T08:05:53;7.45;;;6.25;;
10059;SDS011;5069;49.306;8.636;2023-06-22T08:08:54;7.75;;;6.30;;
10059;SDS011;5069;49.306;8.636;2023-06-22T08:11:58;7.60;;;6.60;;
10059;SDS011;5069;49.306;8.636;2023-06-22T08:15:00;7.00;;;6.13;;
10059;SDS011;5069;49.306;8.636;2023-06-22T08:18:02;12.20;;;6.82;;
10059;SDS011;5069;49.306;8.636;2023-06-22T08:21:03;7.90;;;6.53;;
10059;SDS011;5069;49.306;8.636;2023-06-22T08:24:06;8.38;;;6.28;;
10059;SDS011;5069;49.306;8.636;2023-06-22T08:27:09;7.88;;;5.97;;
10059;SDS011;5069;49.306;8.636;2023-06-22T08:30:13;10.05;;;5.88;;
10059;SDS011;5069;49.306;8.636;2023-06-22T08:33:14;8.88;;;6.40;;
10059;SDS011;5069;49.306;8.636;2023-06-22T08:36:28;11.43;;;7.25;;
10059;SDS011;5069;49.306;8.636;2023-06-22T08:39:32;7.20;;;5.93;;
10059;SDS011;5069;49.306;8.636;2023-06-22T08:42:36;8.20;;;6.10;;
10059;SDS011;5069;49.306;8.636;2023-06-22T08:45:39;7.10;;;6.40;;
10059;SDS011;5069;49.306;8.636;2023-06-22T08:48:41;8.23;;;5.82;;
10059;SDS011;5069;49.306;8.636;2023-06-22T08:51:43;8.05;;;5.88;;
10059;SDS011;5069;49.306;8.636;2023-06-22T08:54:47;8.02;;;6.05;;
10059;SDS011;5069;49.306;8.636;2023-06-22T08:57:48;8.38;;;5.80;;
10059;SDS011;5069;49.306;8.636;2023-06-22T09:00:50;7.07;;;5.82;;
10059;SDS011;5069;49.306;8.636;2023-06-22T09:03:53;6.13;;;5.47;;
10059;SDS011;5069;49.306;8.636;2023-06-22T09:06:59;8.20;;;6.28;;
10059;SDS011;5069;49.306;8.636;2023-06-22T09:10:01;9.52;;;6.03;;
10059;SDS011;5069;49.306;8.636;2023-06-22T09:13:04;7.60;;;5.55;;
10059;SDS011;5069;49.306;8.636;2023-06-22T09:16:06;7.70;;;5.70;;
10059;SDS011;5069;49.306;8.636;2023-06-22T09:19:08;8.68;;;5.60;;
10059;SDS011;5069;49.306;8.636;2023-06-22T09:22:09;8.38;;;6.47;;
10059;SDS011;5069;49.306;8.636;2023-06-22T09:25:11;10.35;;;6.22;;
10059;SDS011;5069;49.306;8.636;2023-06-22T09:28:12;10.48;;;6.30;;
10059;SDS011;5069;49.306;8.636;2023-06-22T09:31:14;9.85;;;5.60;;
10059;SDS011;5069;49.306;8.636;2023-06-22T09:34:17;11.23;;;6.13;;
10059;SDS011;5069;49.306;8.636;2023-06-22T09:37:21;11.00;;;6.57;;
10059;SDS011;5069;49.306;8.636;2023-06-22T09:40:22;8.70;;;5.75;;
10059;SDS011;5069;49.306;8.636;2023-06-22T09:43:24;7.10;;;5.88;;
10059;SDS011;5069;49.306;8.636;2023-06-22T09:46:25;10.57;;;6.15;;
10059;SDS011;5069;49.306;8.636;2023-06-22T09:49:27;8.38;;;6.03;;
10059;SDS011;5069;49.306;8.636;2023-06-22T09:52:46;9.32;;;6.38;;
10059;SDS011;5069;49.306;8.636;2023-06-22T09:55:51;7.35;;;5.90;;
10059;SDS011;5069;49.306;8.636;2023-06-22T09:58:53;10.45;;;5.95;;
10059;SDS011;5069;49.306;8.636;2023-06-22T10:02:10;7.57;;;6.00;;
10059;SDS011;5069;49.306;8.636;2023-06-22T10:05:11;8.27;;;6.50;;
10059;SDS011;5069;49.306;8.636;2023-06-22T10:08:14;8.07;;;5.90;;
10059;SDS011;5069;49.306;8.636;2023-06-22T10:11:15;12.40;;;6.28;;
10059;SDS011;5069;49.306;8.636;2023-06-22T10:14:17;14.73;;;6.25;;
10059;SDS011;5069;49.306;8.636;2023-06-22T10:17:18;8.45;;;6.30;;
10059;SDS011;5069;49.306;8.636;2023-06-22T10:20:20;12.25;;;5.65;;
10059;SDS011;5069;49.306;8.636;2023-06-22T10:23:23;8.35;;;5.65;;
10059;SDS011;5069;49.306;8.636;2023-06-22T10:26:24;8.30;;;5.90;;
10059;SDS011;5069;49.306;8.636;2023-06-22T10:29:27;9.73;;;6.53;;
10059;SDS011;5069;49.306;8.636;2023-06-22T10:32:28;7.80;;;5.63;;
10059;SDS011;5069;49.306;8.636;2023-06-22T10:35:30;13.70;;;6.47;;
10059;SDS011;5069;49.306;8.636;2023-06-22T10:38:32;7.60;;;6.32;;
10059;SDS011;5069;49.306;8.636;2023-06-22T10:41:34;7.63;;;5.85;;
10059;SDS011;5069;49.306;8.636;2023-06-22T10:44:36;8.27;;;6.13;;
10059;SDS011;5069;49.306;8.636;2023-06-22T10:47:38;10.70;;;6.15;;
10059;SDS011;5069;49.306;8.636;2023-06-22T10:50:39;11.15;;;6.22;;
10059;SDS011;5069;49.306;8.636;2023-06-22T10:53:41;10.85;;;5.95;;
10059;SDS011;5069;49.306;8.636;2023-06-22T10:56:42;8.82;;;6.20;;
10059;SDS011;5069;49.306;8.636;2023-06-22T10:59:44;8.98;;;5.57;;
10059;SDS011;5069;49.306;8.636;2023-06-22T11:02:45;10.10;;;5.90;;
10059;SDS011;5069;49.306;8.636;2023-06-22T11:05:47;10.38;;;5.50;;
10059;SDS011;5069;49.306;8.636;2023-06-22T11:08:49;8.73;;;5.68;;
10059;SDS011;5069;49.306;8.636;2023-06-22T11:12:05;10.88;;;5.70;;
10059;SDS011;5069;49.306;8.636;2023-06-22T11:15:08;9.32;;;6.05;;
10059;SDS011;5069;49.306;8.636;2023-06-22T11:18:10;8.65;;;6.10;;
10059;SDS011;5069;49.306;8.636;2023-06-22T11:21:11;10.35;;;5.65;;
10059;SDS011;5069;49.306;8.636;2023-06-22T11:24:13;8.52;;;5.80;;
10059;SDS011;5069;49.306;8.636;2023-06-22T11:27:14;8.07;;;5.20;;
10059;SDS011;5069;49.306;8.636;2023-06-22T11:30:16;10.05;;;6.32;;
10059;SDS011;5069;49.306;8.636;2023-06-22T11:33:18;9.05;;;5.82;;
10059;SDS011;5069;49.306;8.636;2023-06-22T11:36:19;8.60;;;6.38;;
10059;SDS011;5069;49.306;8.636;2023-06-22T11:39:21;12.30;;;5.97;;
10059;SDS011;5069;49.306;8.636;2023-06-22T11:42:39;9.77;;;5.60;;
10059;SDS011;5069;49.306;8.636;2023-06-22T11:45:40;7.57;;;5.95;;
10059;SDS011;5069;49.306;8.636;2023-06-22T11:48:42;7.18;;;5.50;;
10059;SDS011;5069;49.306;8.636;2023-06-22T11:51:43;7.13;;;5.22;;
10059;SDS011;5069;49.306;8.636;2023-06-22T11:54:45;7.47;;;5.50;;
10059;SDS011;5069;49.306;8.636;2023-06-22T11:57:56;8.75;;;5.68;;
10059;SDS011;5069;49.306;8.636;2023-06-22T12:01:01;13.85;;;5.97;;
10059;SDS011;5069;49.306;8.636;2023-06-22T12:04:02;10.35;;;6.10;;
10059;SDS011;5069;49.306;8.636;2023-06-22T12:07:07;9.30;;;6.10;;
10059;SDS011;5069;49.306;8.636;2023-06-22T12:10:08;8.13;;;5.93;;
10059;SDS011;5069;49.306;8.636;2023-06-22T12:13:10;13.50;;;6.00;;
10059;SDS011;5069;49.306;8.636;2023-06-22T12:16:11;12.27;;;6.28;;
10059;SDS011;5069;49.306;8.636;2023-06-22T12:19:13;10.02;;;5.88;;
10059;SDS011;5069;49.306;8.636;2023-06-22T12:22:15;7.95;;;6.05;;
10059;SDS011;5069;49.306;8.636;2023-06-22T12:25:16;10.57;;;5.57;;
10059;SDS011;5069;49.306;8.636;2023-06-22T12:28:18;8.20;;;5.82;;
10059;SDS011;5069;49.306;8.636;2023-06-22T12:31:19;9.02;;;5.75;;
10059;SDS011;5069;49.306;8.636;2023-06-22T12:34:21;13.75;;;6.50;;
10059;SDS011;5069;49.306;8.636;2023-06-22T12:37:23;9.90;;;6.03;;
10059;SDS011;5069;49.306;8.636;2023-06-22T12:40:25;9.98;;;6.22;;
10059;SDS011;5069;49.306;8.636;2023-06-22T12:43:26;11.70;;;5.72;;
10059;SDS011;5069;49.306;8.636;2023-06-22T12:46:27;10.18;;;5.97;;
10059;SDS011;5069;49.306;8.636;2023-06-22T12:49:30;7.43;;;5.65;;
10059;SDS011;5069;49.306;8.636;2023-06-22T12:52:31;10.00;;;6.00;;
10059;SDS011;5069;49.306;8.636;2023-06-22T12:55:36;9.77;;;6.10;;
10059;SDS011;5069;49.306;8.636;2023-06-22T12:58:37;10.13;;;5.75;;
10059;SDS011;5069;49.306;8.636;2023-06-22T13:01:39;9.45;;;6.47;;
10059;SDS011;5069;49.306;8.636;2023-06-22T13:04:40;7.82;;;5.65;;
10059;SDS011;5069;49.306;8.636;2023-06-22T13:07:42;8.88;;;5.68;;
10059;SDS011;5069;49.306;8.636;2023-06-22T13:10:44;11.60;;;6.00;;
10059;SDS011;5069;49.306;8.636;2023-06-22T13:13:45;7.68;;;5.57;;
10059;SDS011;5069;49.306;8.636;2023-06-22T13:16:47;13.50;;;5.85;;
10059;SDS011;5069;49.306;8.636;2023-06-22T13:19:48;8.25;;;6.03;;
10059;SDS011;5069;49.306;8.636;2023-06-22T13:22:50;13.25;;;5.95;;
10059;SDS011;5069;49.306;8.636;2023-06-22T13:25:51;7.75;;;5.93;;
10059;SDS011;5069;49.306;8.636;2023-06-22T13:28:53;13.20;;;6.68;;
10059;SDS011;5069;49.306;8.636;2023-06-22T13:31:54;12.02;;;5.78;;
10059;SDS011;5069;49.306;8.636;2023-06-22T13:34:58;8.45;;;5.95;;
10059;SDS011;5069;49.306;8.636;2023-06-22T13:37:59;12.15;;;6.45;;
10059;SDS011;5069;49.306;8.636;2023-06-22T13:41:01;15.48;;;6.70;;
10059;SDS011;5069;49.306;8.636;2023-06-22T13:44:02;10.82;;;6.47;;
10059;SDS011;5069;49.306;8.636;2023-06-22T13:47:05;13.80;;;6.35;;
10059;SDS011;5069;49.306;8.636;2023-06-22T13:50:07;10.77;;;6.75;;
10059;SDS011;5069;49.306;8.636;2023-06-22T13:53:09;11.05;;;7.00;;
10059;SDS011;5069;49.306;8.636;2023-06-22T13:56:11;11.75;;;6.93;;
10059;SDS011;5069;49.306;8.636;2023-06-22T13:59:12;12.13;;;6.68;;
10059;SDS011;5069;49.306;8.636;2023-06-22T14:02:14;12.52;;;6.95;;
10059;SDS011;5069;49.306;8.636;2023-06-22T14:05:15;13.07;;;6.80;;
10059;SDS011;5069;49.306;8.636;2023-06-22T14:08:17;11.30;;;6.57;;
10059;SDS011;5069;49.306;8.636;2023-06-22T14:11:38;14.10;;;7.05;;
10059;SDS011;5069;49.306;8.636;2023-06-22T14:14:40;14.63;;;6.72;;
10059;SDS011;5069;49.306;8.636;2023-06-22T14:17:41;10.80;;;6.50;;
10059;SDS011;5069;49.306;8.636;2023-06-22T14:20:43;11.13;;;6.57;;
10059;SDS011;5069;49.306;8.636;2023-06-22T14:23:44;16.27;;;7.25;;
10059;SDS011;5069;49.306;8.636;2023-06-22T14:26:50;10.65;;;7.07;;
10059;SDS011;5069;49.306;8.636;2023-06-22T14:29:51;12.15;;;6.95;;
10059;SDS011;5069;49.306;8.636;2023-06-22T14:32:53;11.48;;;7.15;;
10059;SDS011;5069;49.306;8.636;2023-06-22T14:35:55;10.23;;;6.85;;
10059;SDS011;5069;49.306;8.636;2023-06-22T14:38:56;17.42;;;7.50;;
10059;SDS011;5069;49.306;8.636;2023-06-22T14:41:58;13.57;;;7.03;;
10059;SDS011;5069;49.306;8.636;2023-06-22T14:44:59;10.52;;;6.82;;
10059;SDS011;5069;49.306;8.636;2023-06-22T14:48:01;11.85;;;7.30;;
10059;SDS011;5069;49.306;8.636;2023-06-22T14:51:02;12.23;;;6.88;;
10059;SDS011;5069;49.306;8.636;2023-06-22T14:54:04;11.90;;;7.43;;
10059;SDS011;5069;49.306;8.636;2023-06-22T14:57:05;12.77;;;7.22;;
10059;SDS011;5069;49.306;8.636;2023-06-22T15:00:07;16.63;;;7.50;;
10059;SDS011;5069;49.306;8.636;2023-06-22T15:03:09;10.63;;;7.30;;
10059;SDS011;5069;49.306;8.636;2023-06-22T15:06:18;14.55;;;7.57;;
10059;SDS011;5069;49.306;8.636;2023-06-22T15:09:19;14.90;;;7.22;;
10059;SDS011;5069;49.306;8.636;2023-06-22T15:12:21;12.18;;;7.05;;
10059;SDS011;5069;49.306;8.636;2023-06-22T15:15:22;11.60;;;6.95;;
10059;SDS011;5069;49.306;8.636;2023-06-22T15:18:24;8.32;;;6.78;;
10059;SDS011;5069;49.306;8.636;2023-06-22T15:21:25;10.73;;;6.93;;
10059;SDS011;5069;49.306;8.636;2023-06-22T15:24:27;13.52;;;7.25;;
10059;SDS011;5069;49.306;8.636;2023-06-22T15:27:28;13.48;;;7.40;;
10059;SDS011;5069;49.306;8.636;2023-06-22T15:30:30;11.35;;;7.20;;
10059;SDS011;5069;49.306;8.636;2023-06-22T15:33:32;14.13;;;7.85;;
10059;SDS011;5069;49.306;8.636;2023-06-22T15:36:34;13.73;;;7.10;;
10059;SDS011;5069;49.306;8.636;2023-06-22T15:39:36;9.57;;;7.07;;
10059;SDS011;5069;49.306;8.636;2023-06-22T15:42:37;14.23;;;6.93;;
10059;SDS011;5069;49.306;8.636;2023-06-22T15:45:39;15.27;;;6.95;;
10059;SDS011;5069;49.306;8.636;2023-06-22T15:48:40;11.00;;;7.07;;
10059;SDS011;5069;49.306;8.636;2023-06-22T15:51:42;13.85;;;6.50;;
10059;SDS011;5069;49.306;8.636;2023-06-22T15:54:45;11.95;;;6.20;;
10059;SDS011;5069;49.306;8.636;2023-06-22T15:57:47;10.55;;;5.63;;
10059;SDS011;5069;49.306;8.636;2023-06-22T16:00:48;10.80;;;6.32;;
10059;SDS011;5069;49.306;8.636;2023-06-22T16:03:53;12.20;;;6.22;;
10059;SDS011;5069;49.306;8.636;2023-06-22T16:06:55;11.32;;;5.85;;
10059;SDS011;5069;49.306;8.636;2023-06-22T16:09:56;10.90;;;5.57;;
10059;SDS011;5069;49.306;8.636;2023-06-22T16:12:58;13.63;;;6.15;;
10059;SDS011;5069;49.306;8.636;2023-06-22T16:15:59;11.57;;;6.28;;
10059;SDS011;5069;49.306;8.636;2023-06-22T16:19:01;11.73;;;6.28;;
10059;SDS011;5069;49.306;8.636;2023-06-22T16:22:02;13.77;;;6.38;;
10059;SDS011;5069;49.306;8.636;2023-06-22T16:25:04;11.23;;;6.15;;
10059;SDS011;5069;49.306;8.636;2023-06-22T16:28:06;14.88;;;7.28;;
10059;SDS011;5069;49.306;8.636;2023-06-22T16:31:07;13.40;;;6.18;;
10059;SDS011;5069;49.306;8.636;2023-06-22T16:34:09;14.32;;;6.68;;
10059;SDS011;5069;49.306;8.636;2023-06-22T16:37:11;13.98;;;6.38;;
10059;SDS011;5069;49.306;8.636;2023-06-22T16:40:13;16.42;;;7.10;;
10059;SDS011;5069;49.306;8.636;2023-06-22T16:43:16;9.90;;;6.15;;
10059;SDS011;5069;49.306;8.636;2023-06-22T16:46:18;12.23;;;6.65;;
10059;SDS011;5069;49.306;8.636;2023-06-22T16:49:19;11.48;;;6.88;;
10059;SDS011;5069;49.306;8.636;2023-06-22T16:52:21;10.20;;;6.90;;
10059;SDS011;5069;49.306;8.636;2023-06-22T16:55:23;14.85;;;6.80;;
10059;SDS011;5069;49.306;8.636;2023-06-22T16:58:25;16.83;;;6.82;;
10059;SDS011;5069;49.306;8.636;2023-06-22T17:01:26;14.88;;;6.85;;
10059;SDS011;5069;49.306;8.636;2023-06-22T17:04:30;14.38;;;6.72;;
10059;SDS011;5069;49.306;8.636;2023-06-22T17:07:34;13.18;;;7.10;;
10059;SDS011;5069;49.306;8.636;2023-06-22T17:10:39;11.77;;;6.53;;
10059;SDS011;5069;49.306;8.636;2023-06-22T17:13:42;11.10;;;6.20;;
10059;SDS011;5069;49.306;8.636;2023-06-22T17:16:44;14.27;;;6.03;;
10059;SDS011;5069;49.306;8.636;2023-06-22T17:19:48;15.05;;;6.10;;
10059;SDS011;5069;49.306;8.636;2023-06-22T17:22:50;14.05;;;5.85;;
10059;SDS011;5069;49.306;8.636;2023-06-22T17:25:52;16.77;;;6.00;;
10059;SDS011;5069;49.306;8.636;2023-06-22T17:28:54;14.60;;;6.00;;
10059;SDS011;5069;49.306;8.636;2023-06-22T17:32:02;16.83;;;6.28;;
10059;SDS011;5069;49.306;8.636;2023-06-22T17:35:04;13.18;;;6.22;;
10059;SDS011;5069;49.306;8.636;2023-06-22T17:38:06;13.10;;;6.15;;
10059;SDS011;5069;49.306;8.636;2023-06-22T17:41:08;14.75;;;6.15;;
10059;SDS011;5069;49.306;8.636;2023-06-22T17:44:10;10.52;;;5.93;;
10059;SDS011;5069;49.306;8.636;2023-06-22T17:47:14;9.98;;;5.82;;
10059;SDS011;5069;49.306;8.636;2023-06-22T17:50:24;11.88;;;5.25;;
10059;SDS011;5069;49.306;8.636;2023-06-22T17:53:26;7.15;;;5.05;;
10059;SDS011;5069;49.306;8.636;2023-06-22T17:56:29;8.90;;;4.90;;
10059;SDS011;5069;49.306;8.636;2023-06-22T17:59:31;13.35;;;4.57;;
10059;SDS011;5069;49.306;8.636;2023-06-22T18:02:35;9.82;;;4.20;;
10059;SDS011;5069;49.306;8.636;2023-06-22T18:05:38;8.18;;;3.67;;
10059;SDS011;5069;49.306;8.636;2023-06-22T18:08:47;10.57;;;4.03;;
10059;SDS011;5069;49.306;8.636;2023-06-22T18:11:51;10.73;;;4.15;;
10059;SDS011;5069;49.306;8.636;2023-06-22T18:14:56;8.23;;;3.72;;
10059;SDS011;5069;49.306;8.636;2023-06-22T18:17:58;12.13;;;3.33;;
10059;SDS011;5069;49.306;8.636;2023-06-22T18:21:00;9.10;;;3.35;;
10059;SDS011;5069;49.306;8.636;2023-06-22T18:24:03;8.30;;;3.67;;
10059;SDS011;5069;49.306;8.636;2023-06-22T18:27:06;8.82;;;3.50;;
10059;SDS011;5069;49.306;8.636;2023-06-22T18:30:10;8.93;;;3.75;;
10059;SDS011;5069;49.306;8.636;2023-06-22T18:33:12;8.00;;;3.20;;